Search for airport 
image banner adimage banner adimage banner ad
image banner ad

KFOT - Rohnerville

Located in Fortuna, United States

ICAO - FOT, IATA -

Data provided by Airmate  

General information

Coordinates: N40°33'14" W124°7'58"
Elevation is 393 feet MSL.
Magnetic variation is 17° East
View others Airports in California

Operational data

Special qualification required
Current time UTC:
Current local time:
Weather
METAR: KFOT 260955Z AUTO 00000KT 9SM OVC012 12/12 A3002 RMK AO1
View NOTAMs / SUP AIP / TFR affecting this airport [VIEW]
Communications frequencies: [VIEW]

Runways:

RWY identifierQFULength (ft)Width (ft)SurfaceLDA (ft)
11127°4005100ASPH
29307°4005100ASPH

Airport contact information

Address: Fortuna United States

Satellite view of KFOT